KADG

Details ICAO KADG
Name Lenawee Co
Region United States
Timezone America/Detroit (UTC-4.0)
Plans Departing 3
Arriving 5
Stats Elevation 798 ft / 243 m (AMSL)
Location 41.868418° -84.077498°
Runways 2
Magnetic Variation 6.700° W
Sunrise 2018-05-22 10:11:23 UTC / 2018-05-22 06:11:23 Local
Sunset 2018-05-23 00:57:27 UTC / 2018-05-22 20:57:27 Local
Advertisement - Login to hide

Runways

ID Width Length Bearing (true) Bearing (mag) Surface Threshold Offset Overrun Length
05 98 ft / 30 m 4,998 ft / 1,523 m 47.13° 53.83° Asphalt 0 ft / 0 m 0 ft / 0 m
11 151 ft / 46 m 1,807 ft / 551 m 106.97° 113.67° Grass 0 ft / 0 m 0 ft / 0 m
23 98 ft / 30 m 4,998 ft / 1,523 m 227.14° 233.84° Asphalt 0 ft / 0 m 0 ft / 0 m
29 151 ft / 46 m 1,807 ft / 551 m 286.97° 293.67° Grass 0 ft / 0 m 0 ft / 0 m

Map

Weather


0- 5 10 15 20 25 30 35+ Temperature / ° C

Clouds and Precipitation
Forecast for 2018-05-22 12:00 UTC. Updated an hour ago

Ground ~20,000 ft ~40,000 ft Winds

METAR

KADG 220953Z AUTO 00000KT 5SM BR OVC006 12/12 A2998 RMK AO2 SLP157 T01170117 TSNO

TAF

Not found

Frequencies

Recorded 118.37 MHz ASOS
Approach 134.35 MHz TOLEDO APP/DEP
Unicom 122.80 MHz CTAF/UNICOM
Warning: Do not use this data for real-world aviation or navigation. No guarantee of current accuracy is given.